createdAt,value
2019-04-16T00:00:35.974Z,22.63
2019-04-16T00:03:04.973Z,22.27
2019-04-16T00:05:38.752Z,21.13
2019-04-16T00:08:26.483Z,22.97
2019-04-16T00:10:50.655Z,22.77
2019-04-16T00:13:41.509Z,22.20
2019-04-16T00:16:12.942Z,23.07
2019-04-16T00:18:56.345Z,22.27
2019-04-16T00:21:47.245Z,23.93
2019-04-16T00:24:24.441Z,22.60
2019-04-16T00:26:58.036Z,24.30
2019-04-16T00:29:24.991Z,22.27
2019-04-16T00:32:00.393Z,21.50
2019-04-16T00:34:29.911Z,23.20
2019-04-16T00:37:01.246Z,21.07
2019-04-16T00:39:30.336Z,22.30
2019-04-16T00:42:02.969Z,22.33
2019-04-16T00:44:32.057Z,21.97
2019-04-16T00:47:00.976Z,22.73
2019-04-16T00:49:29.985Z,21.47
2019-04-16T00:51:58.981Z,21.93
2019-04-16T00:54:27.925Z,22.80
2019-04-16T00:56:56.954Z,21.90
2019-04-16T00:59:25.936Z,21.70
2019-04-16T01:01:54.932Z,25.47
2019-04-16T01:04:23.941Z,23.00
2019-04-16T01:06:52.866Z,23.53
2019-04-16T01:09:21.852Z,22.53
2019-04-16T01:11:51.177Z,22.13
2019-04-16T01:14:20.178Z,22.07
2019-04-16T01:16:49.173Z,22.87
2019-04-16T01:19:18.089Z,22.20
2019-04-16T01:21:47.330Z,22.07
2019-04-16T01:24:17.538Z,21.83
2019-04-16T01:26:47.118Z,22.53
2019-04-16T01:29:17.226Z,21.07
2019-04-16T01:32:12.065Z,21.80
2019-04-16T01:35:09.657Z,22.03
2019-04-16T01:37:57.942Z,30.00
2019-04-16T01:40:32.670Z,22.97
2019-04-16T01:43:01.530Z,22.77
2019-04-16T01:45:30.487Z,22.13
2019-04-16T01:47:59.370Z,22.90
2019-04-16T01:50:28.285Z,22.83
2019-04-16T01:52:57.162Z,23.27
2019-04-16T01:55:26.456Z,21.50
2019-04-16T01:57:55.504Z,27.97
2019-04-16T02:00:24.503Z,20.37
2019-04-16T02:02:53.497Z,22.13
2019-04-16T02:05:23.129Z,23.10
2019-04-16T02:07:52.973Z,21.87
2019-04-16T02:10:25.841Z,21.33
2019-04-16T02:12:54.977Z,23.17
2019-04-16T02:15:24.007Z,23.77
2019-04-16T02:17:55.419Z,21.77
2019-04-16T02:20:23.722Z,22.67
2019-04-16T02:22:52.721Z,22.27
2019-04-16T02:25:21.709Z,21.83
2019-04-16T02:27:50.797Z,21.67
2019-04-16T02:30:20.029Z,22.93
2019-04-16T02:32:49.557Z,23.53
2019-04-16T02:35:18.541Z,20.90
2019-04-16T02:37:47.499Z,23.03
2019-04-16T02:40:18.759Z,20.63
2019-04-16T02:42:47.402Z,22.87
2019-04-16T02:45:22.952Z,24.47
2019-04-16T02:47:47.433Z,21.30
2019-04-16T02:50:21.744Z,22.93
2019-04-16T02:53:09.836Z,23.67
2019-04-16T02:55:57.896Z,22.30
2019-04-16T02:58:35.172Z,22.40
2019-04-16T03:01:31.869Z,24.10
2019-04-16T03:04:05.066Z,23.20
2019-04-16T03:06:34.465Z,22.27
2019-04-16T03:09:08.552Z,22.90
2019-04-16T03:11:36.267Z,23.53
2019-04-16T03:14:05.303Z,23.67
2019-04-16T03:16:54.053Z,23.17
2019-04-16T03:19:27.983Z,22.90
2019-04-16T03:21:59.170Z,24.40
2019-04-16T03:24:27.938Z,22.97
2019-04-16T03:26:57.265Z,23.00
2019-04-16T03:29:27.551Z,24.90
2019-04-16T03:31:59.291Z,24.27
2019-04-16T03:34:27.973Z,25.70
2019-04-16T03:36:58.647Z,23.63
2019-04-16T03:39:27.793Z,22.97
2019-04-16T03:41:56.911Z,24.57
2019-04-16T03:44:25.996Z,25.33
2019-04-16T03:46:55.102Z,24.03
2019-04-16T03:49:24.592Z,27.67
2019-04-16T03:51:55.106Z,23.73
2019-04-16T03:54:23.965Z,23.80
2019-04-16T03:56:52.957Z,22.73
2019-04-16T03:59:21.972Z,26.17
2019-04-16T04:01:50.890Z,23.83
2019-04-16T04:04:20.133Z,26.00
2019-04-16T04:06:49.101Z,25.77
2019-04-16T04:09:18.886Z,24.63
2019-04-16T04:11:48.662Z,26.33
2019-04-16T04:14:22.144Z,25.40
2019-04-16T04:16:48.491Z,27.20
2019-04-16T04:19:17.611Z,26.07
2019-04-16T04:21:46.632Z,24.20
2019-04-16T04:24:15.653Z,24.77
2019-04-16T04:26:44.637Z,25.90
2019-04-16T04:29:13.762Z,30.97
2019-04-16T04:31:42.674Z,26.43
2019-04-16T04:34:15.771Z,27.47
2019-04-16T04:36:42.514Z,25.13
2019-04-16T04:39:14.936Z,24.17
2019-04-16T04:41:42.217Z,28.30
2019-04-16T04:44:11.471Z,26.53
2019-04-16T04:46:43.275Z,33.70
2019-04-16T04:49:11.498Z,28.33
2019-04-16T04:51:43.494Z,24.57
2019-04-16T04:54:11.402Z,25.77
2019-04-16T04:56:40.447Z,26.07
2019-04-16T04:59:09.373Z,26.23
2019-04-16T05:01:38.402Z,26.00
2019-04-16T05:04:24.673Z,25.97
2019-04-16T05:06:57.277Z,24.33
2019-04-16T05:09:29.154Z,24.20
2019-04-16T05:11:56.645Z,23.70
2019-04-16T05:14:26.111Z,25.17
2019-04-16T05:16:55.378Z,26.07
2019-04-16T05:19:24.601Z,24.87
2019-04-16T05:21:53.809Z,26.90
2019-04-16T05:24:22.717Z,29.67
2019-04-16T05:26:51.578Z,26.60
2019-04-16T05:29:20.437Z,27.00
2019-04-16T05:31:49.486Z,26.77
2019-04-16T05:34:18.506Z,26.97
2019-04-16T05:36:48.156Z,28.40
2019-04-16T05:39:17.365Z,29.53
2019-04-16T05:41:46.569Z,25.40
2019-04-16T05:44:15.414Z,31.30
2019-04-16T05:46:46.800Z,29.23
2019-04-16T05:49:15.982Z,27.60
2019-04-16T05:51:44.989Z,33.40
2019-04-16T05:54:48.105Z,34.63
2019-04-16T05:57:25.662Z,38.37
2019-04-16T05:59:53.782Z,26.37
2019-04-16T06:02:28.955Z,25.77
2019-04-16T06:04:57.933Z,28.47
2019-04-16T06:07:27.168Z,23.93
2019-04-16T06:09:56.041Z,31.30
2019-04-16T06:12:26.981Z,27.57
2019-04-16T06:15:10.381Z,39.20
2019-04-16T06:18:06.537Z,31.10
2019-04-16T06:20:46.028Z,25.83
2019-04-16T06:23:23.471Z,33.10
2019-04-16T06:25:57.258Z,24.90
2019-04-16T06:28:49.285Z,24.67
2019-04-16T06:31:49.771Z,24.30
2019-04-16T06:34:38.078Z,30.20
2019-04-16T06:37:20.735Z,24.37
2019-04-16T06:40:04.307Z,23.93
2019-04-16T06:42:40.791Z,29.63
2019-04-16T06:45:37.051Z,24.17
2019-04-16T06:48:12.766Z,22.60
2019-04-16T06:51:12.432Z,24.17
2019-04-16T06:53:56.729Z,23.37
2019-04-16T06:56:37.371Z,22.33
2019-04-16T06:59:12.830Z,22.50
2019-04-16T07:02:07.719Z,25.90
2019-04-16T07:04:51.869Z,24.83
2019-04-16T07:07:48.595Z,24.63
2019-04-16T07:10:19.558Z,22.80
2019-04-16T07:12:48.559Z,23.50
2019-04-16T07:15:22.561Z,22.77
2019-04-16T07:17:48.673Z,23.77
2019-04-16T07:20:17.681Z,23.67
2019-04-16T07:22:46.527Z,24.73
2019-04-16T07:25:15.893Z,24.77
2019-04-16T07:27:55.874Z,23.37
2019-04-16T07:30:29.927Z,24.50
2019-04-16T07:33:12.753Z,24.73
2019-04-16T07:35:50.155Z,23.07
2019-04-16T07:38:26.738Z,23.17
2019-04-16T07:41:20.733Z,22.67
2019-04-16T07:44:10.021Z,22.03
2019-04-16T07:46:46.689Z,21.33
2019-04-16T07:49:45.508Z,23.37
2019-04-16T07:52:32.623Z,21.93
2019-04-16T07:55:32.965Z,23.87
2019-04-16T07:58:01.888Z,23.40
2019-04-16T08:00:30.721Z,23.10
2019-04-16T08:02:59.561Z,22.60
2019-04-16T08:05:28.499Z,22.53
2019-04-16T08:07:57.370Z,23.07
2019-04-16T08:10:26.365Z,23.37
2019-04-16T08:13:07.259Z,22.20
2019-04-16T08:15:36.356Z,22.10
2019-04-16T08:18:05.351Z,23.73
2019-04-16T08:20:34.288Z,21.83
2019-04-16T08:23:07.270Z,23.57
2019-04-16T08:25:36.178Z,22.30
2019-04-16T08:28:07.405Z,22.07
2019-04-16T08:30:39.360Z,21.37
2019-04-16T08:33:06.414Z,21.80
2019-04-16T08:35:35.672Z,19.83
2019-04-16T08:38:04.665Z,20.80
2019-04-16T08:40:33.905Z,22.57
2019-04-16T08:43:02.985Z,21.50
2019-04-16T08:45:31.825Z,21.83
2019-04-16T08:48:00.657Z,20.77
2019-04-16T08:50:29.602Z,21.20
2019-04-16T08:52:58.624Z,19.50
2019-04-16T08:55:27.940Z,20.53
2019-04-16T08:57:57.123Z,23.23
2019-04-16T09:00:26.186Z,21.10
2019-04-16T09:02:57.732Z,19.90
2019-04-16T09:05:26.015Z,17.87
2019-04-16T09:08:10.874Z,18.30
2019-04-16T09:10:30.946Z,20.37
2019-04-16T09:13:04.338Z,20.80
2019-04-16T09:15:34.062Z,19.70
2019-04-16T09:18:16.463Z,17.17
2019-04-16T09:20:46.213Z,21.43
2019-04-16T09:23:15.347Z,18.10
2019-04-16T09:26:15.393Z,17.43
2019-04-16T09:29:07.980Z,17.07
2019-04-16T09:31:55.529Z,16.53
2019-04-16T09:34:42.319Z,16.73
2019-04-16T09:37:25.458Z,17.23
2019-04-16T09:40:18.892Z,13.43
2019-04-16T09:42:48.093Z,15.90
2019-04-16T09:45:18.679Z,15.83
2019-04-16T09:47:47.679Z,15.00
2019-04-16T09:50:18.009Z,15.00
2019-04-16T09:52:46.986Z,15.27
2019-04-16T09:55:18.894Z,16.63
2019-04-16T09:57:47.557Z,17.40
2019-04-16T10:00:22.632Z,15.10
2019-04-16T10:02:55.031Z,14.80
2019-04-16T10:05:23.034Z,13.00
2019-04-16T10:07:52.071Z,15.67
2019-04-16T10:10:24.025Z,12.57
2019-04-16T10:12:51.882Z,14.37
2019-04-16T10:15:21.025Z,14.33
2019-04-16T10:17:50.041Z,14.83
2019-04-16T10:20:20.048Z,12.97
2019-04-16T10:22:49.020Z,14.27
2019-04-16T10:25:17.946Z,13.33
2019-04-16T10:28:05.020Z,13.20
2019-04-16T10:30:53.449Z,14.37
2019-04-16T10:33:22.575Z,10.70
2019-04-16T10:35:51.649Z,10.97
2019-04-16T10:38:42.676Z,10.93
2019-04-16T10:41:24.014Z,11.30
2019-04-16T10:44:11.111Z,11.03
2019-04-16T10:46:57.998Z,10.40
2019-04-16T10:49:46.255Z,9.37
2019-04-16T10:52:34.542Z,9.57
2019-04-16T10:55:14.858Z,11.43
2019-04-16T10:58:02.123Z,11.60
2019-04-16T11:00:56.605Z,11.90
2019-04-16T11:03:34.415Z,11.27
2019-04-16T11:06:08.430Z,11.10
2019-04-16T11:08:37.427Z,12.70
2019-04-16T11:11:06.552Z,10.93
2019-04-16T11:13:41.886Z,10.50
2019-04-16T11:16:17.116Z,9.57
2019-04-16T11:18:46.339Z,10.87
2019-04-16T11:21:15.682Z,11.73
2019-04-16T11:23:44.703Z,12.53
2019-04-16T11:26:13.614Z,12.60
2019-04-16T11:28:42.599Z,11.50
2019-04-16T11:31:14.784Z,12.13
2019-04-16T11:33:43.850Z,13.07
2019-04-16T11:36:19.492Z,16.03
2019-04-16T11:38:43.734Z,13.57
2019-04-16T11:41:12.948Z,12.20
2019-04-16T11:43:42.251Z,11.90
2019-04-16T11:46:11.549Z,22.23
2019-04-16T11:48:40.722Z,13.10
2019-04-16T11:51:11.022Z,12.63
2019-04-16T11:53:40.154Z,11.93
2019-04-16T11:56:09.148Z,12.07
2019-04-16T11:58:43.597Z,11.03
2019-04-16T12:01:30.489Z,12.97
2019-04-16T12:04:07.331Z,13.60
2019-04-16T12:06:46.644Z,11.43
2019-04-16T12:09:33.291Z,11.80
2019-04-16T12:12:07.414Z,13.10
2019-04-16T12:15:04.592Z,12.77
2019-04-16T12:17:46.347Z,12.80
2019-04-16T12:20:34.517Z,11.30
2019-04-16T12:23:11.015Z,10.40
2019-04-16T12:25:59.088Z,12.30
2019-04-16T12:28:59.567Z,10.80
2019-04-16T12:31:56.586Z,11.90
2019-04-16T12:34:31.446Z,11.23
2019-04-16T12:37:25.303Z,10.93
2019-04-16T12:40:09.938Z,10.23
2019-04-16T12:42:43.505Z,10.23
2019-04-16T12:45:47.425Z,9.90
2019-04-16T12:48:29.868Z,10.80
2019-04-16T12:51:16.949Z,8.60
2019-04-16T12:53:53.366Z,9.10
2019-04-16T12:56:46.857Z,9.43
2019-04-16T12:59:29.814Z,9.30
2019-04-16T13:02:12.212Z,9.90
2019-04-16T13:04:42.206Z,10.10
2019-04-16T13:07:33.490Z,11.13
2019-04-16T13:10:10.970Z,11.07
2019-04-16T13:13:01.879Z,10.00
2019-04-16T13:15:54.467Z,9.57
2019-04-16T13:18:41.507Z,13.70
2019-04-16T13:21:21.737Z,9.97
2019-04-16T13:24:09.817Z,11.53
2019-04-16T13:26:43.163Z,10.43
2019-04-16T13:29:29.207Z,9.23
2019-04-16T13:31:53.982Z,10.90
2019-04-16T13:34:22.989Z,10.77
2019-04-16T13:36:52.240Z,10.37
2019-04-16T13:39:46.595Z,12.17
2019-04-16T13:42:15.909Z,11.87
2019-04-16T13:44:48.173Z,13.03
2019-04-16T13:47:17.177Z,13.80
2019-04-16T13:50:04.783Z,12.07
2019-04-16T13:52:34.005Z,12.83
2019-04-16T13:55:41.665Z,12.20
2019-04-16T13:58:26.963Z,11.87
2019-04-16T14:01:01.089Z,12.10
2019-04-16T14:03:30.017Z,12.30
2019-04-16T14:05:59.110Z,11.90
2019-04-16T14:08:28.247Z,12.17
2019-04-16T14:10:57.248Z,12.27
2019-04-16T14:13:26.249Z,10.20
2019-04-16T14:15:55.465Z,12.43
2019-04-16T14:18:24.394Z,10.00
2019-04-16T14:20:53.359Z,11.17
2019-04-16T14:23:22.396Z,11.57
2019-04-16T14:25:51.406Z,11.37
2019-04-16T14:28:20.338Z,12.40
2019-04-16T14:30:50.405Z,11.13
2019-04-16T14:33:40.256Z,11.33
2019-04-16T14:36:09.166Z,13.67
2019-04-16T14:38:57.229Z,10.93
2019-04-16T14:41:26.546Z,11.87
2019-04-16T14:44:02.511Z,11.63
2019-04-16T14:46:33.739Z,10.80
2019-04-16T14:49:02.767Z,11.70
2019-04-16T14:51:31.796Z,11.27
2019-04-16T14:54:32.218Z,11.67
2019-04-16T14:57:01.576Z,11.67
2019-04-16T14:59:38.914Z,10.50
2019-04-16T15:02:29.661Z,12.70
2019-04-16T15:05:16.444Z,9.50
2019-04-16T15:08:07.538Z,9.70
2019-04-16T15:10:55.606Z,10.87
2019-04-16T15:13:49.645Z,10.33
2019-04-16T15:16:44.997Z,10.57
2019-04-16T15:19:45.733Z,10.33
2019-04-16T15:22:42.886Z,9.57
2019-04-16T15:25:17.698Z,10.80
2019-04-16T15:28:12.298Z,8.40
2019-04-16T15:31:06.395Z,9.80
2019-04-16T15:33:43.325Z,11.53
2019-04-16T15:36:19.479Z,9.83
2019-04-16T15:39:02.898Z,11.03
2019-04-16T15:41:52.113Z,9.60
2019-04-16T15:44:31.738Z,9.70
2019-04-16T15:47:10.476Z,9.90
2019-04-16T15:50:03.333Z,10.27
2019-04-16T15:52:45.947Z,10.93
2019-04-16T15:55:47.810Z,10.10
2019-04-16T15:58:35.807Z,11.90
2019-04-16T16:01:22.656Z,10.60
2019-04-16T16:04:10.770Z,11.37
2019-04-16T16:06:58.917Z,11.30
2019-04-16T16:09:51.561Z,10.20
2019-04-16T16:12:23.054Z,10.33
2019-04-16T16:14:52.338Z,10.30
2019-04-16T16:17:22.583Z,10.83
2019-04-16T16:19:52.392Z,11.03
2019-04-16T16:22:21.410Z,14.23
2019-04-16T16:24:50.434Z,9.63
2019-04-16T16:27:19.601Z,9.87
2019-04-16T16:29:48.487Z,10.00
2019-04-16T16:32:17.525Z,8.40
2019-04-16T16:34:46.518Z,8.73
2019-04-16T16:37:15.450Z,9.53
2019-04-16T16:39:44.445Z,9.03
2019-04-16T16:42:13.458Z,9.63
2019-04-16T16:44:42.437Z,9.83
2019-04-16T16:47:25.454Z,8.53
2019-04-16T16:49:54.461Z,10.17
2019-04-16T16:52:52.602Z,9.67
2019-04-16T16:55:30.306Z,9.13
2019-04-16T16:58:27.446Z,10.17
2019-04-16T17:01:14.369Z,8.87
2019-04-16T17:03:56.423Z,9.17
2019-04-16T17:06:25.375Z,9.50
2019-04-16T17:08:54.297Z,12.43
2019-04-16T17:11:23.223Z,9.87
2019-04-16T17:13:52.186Z,10.53
2019-04-16T17:16:21.375Z,9.57
2019-04-16T17:18:50.578Z,10.60
2019-04-16T17:21:19.517Z,10.33
2019-04-16T17:23:48.374Z,14.03
2019-04-16T17:26:17.375Z,10.47
2019-04-16T17:28:46.293Z,10.97
2019-04-16T17:31:15.290Z,11.63
2019-04-16T17:33:44.221Z,10.83
2019-04-16T17:36:13.529Z,10.17
2019-04-16T17:38:42.518Z,11.43
2019-04-16T17:41:14.261Z,12.40
2019-04-16T17:44:02.154Z,12.30
2019-04-16T17:46:50.216Z,11.70
2019-04-16T17:49:27.742Z,12.03
2019-04-16T17:52:15.657Z,11.40
2019-04-16T17:55:09.662Z,12.03
2019-04-16T17:57:51.665Z,12.67
2019-04-16T18:00:45.902Z,12.37
2019-04-16T18:03:37.012Z,12.40
2019-04-16T18:06:18.077Z,12.03
2019-04-16T18:09:05.225Z,11.93
2019-04-16T18:11:56.146Z,9.03
2019-04-16T18:14:50.131Z,7.87
2019-04-16T18:17:27.646Z,8.93
2019-04-16T18:20:21.426Z,8.33
2019-04-16T18:23:09.494Z,9.03
2019-04-16T18:26:01.552Z,7.03
2019-04-16T18:28:35.986Z,8.13
2019-04-16T18:31:17.388Z,6.93
2019-04-16T18:33:55.057Z,7.27
2019-04-16T18:36:37.562Z,6.83
2019-04-16T18:39:28.710Z,6.40
2019-04-16T18:42:02.049Z,7.13
2019-04-16T18:45:08.581Z,7.07
2019-04-16T18:48:02.917Z,6.23
2019-04-16T18:50:27.922Z,5.57
2019-04-16T18:52:54.474Z,6.67
2019-04-16T18:55:23.382Z,5.80
2019-04-16T18:57:52.582Z,6.90
2019-04-16T19:00:44.082Z,6.43
2019-04-16T19:03:14.975Z,5.97
2019-04-16T19:05:43.843Z,6.63
2019-04-16T19:08:12.774Z,6.17
2019-04-16T19:10:41.894Z,6.73
2019-04-16T19:13:11.684Z,7.20
2019-04-16T19:15:40.927Z,7.23
2019-04-16T19:18:19.372Z,6.67
2019-04-16T19:20:40.665Z,7.07
2019-04-16T19:23:09.673Z,7.53
2019-04-16T19:25:38.973Z,5.40
2019-04-16T19:28:08.089Z,7.00
2019-04-16T19:30:37.517Z,6.40
2019-04-16T19:33:06.745Z,7.80
2019-04-16T19:35:35.749Z,6.50
2019-04-16T19:38:06.457Z,6.60
2019-04-16T19:40:35.837Z,7.13
2019-04-16T19:43:04.829Z,7.37
2019-04-16T19:45:33.861Z,7.57
2019-04-16T19:48:03.055Z,7.00
2019-04-16T19:50:36.047Z,7.07
2019-04-16T19:53:03.515Z,7.53
2019-04-16T19:55:32.563Z,7.70
2019-04-16T19:58:02.149Z,6.73
2019-04-16T20:00:31.171Z,6.30
2019-04-16T20:03:00.235Z,6.83
2019-04-16T20:05:29.540Z,7.00
2019-04-16T20:07:58.432Z,6.87
2019-04-16T20:10:27.611Z,6.30
2019-04-16T20:12:59.042Z,6.93
2019-04-16T20:15:27.482Z,7.57
2019-04-16T20:17:56.709Z,6.17
2019-04-16T20:20:25.634Z,7.20
2019-04-16T20:22:54.881Z,7.00
2019-04-16T20:25:24.240Z,6.50
2019-04-16T20:27:53.707Z,6.50
2019-04-16T20:30:24.382Z,6.20
2019-04-16T20:32:53.584Z,6.53
2019-04-16T20:35:22.565Z,6.20
2019-04-16T20:37:54.278Z,5.60
2019-04-16T20:40:22.110Z,5.97
2019-04-16T20:42:51.045Z,7.10
2019-04-16T20:45:20.149Z,7.07
2019-04-16T20:47:49.204Z,7.13
2019-04-16T20:50:20.801Z,6.53
2019-04-16T20:52:50.109Z,6.47
2019-04-16T20:55:19.133Z,7.20
2019-04-16T20:57:48.023Z,7.60
2019-04-16T21:00:22.480Z,6.07
2019-04-16T21:02:51.894Z,6.57
2019-04-16T21:05:22.666Z,6.77
2019-04-16T21:07:51.757Z,6.90
2019-04-16T21:10:20.649Z,7.10
2019-04-16T21:12:49.918Z,6.60
2019-04-16T21:15:18.966Z,7.67
2019-04-16T21:17:48.035Z,6.33
2019-04-16T21:20:20.280Z,7.07
2019-04-16T21:22:47.625Z,7.10
2019-04-16T21:25:16.539Z,6.83
2019-04-16T21:28:04.717Z,6.90
2019-04-16T21:30:33.993Z,7.63
2019-04-16T21:33:24.921Z,6.90
2019-04-16T21:35:55.685Z,7.30
2019-04-16T21:38:33.430Z,7.20
2019-04-16T21:41:02.435Z,7.07
2019-04-16T21:43:31.461Z,7.73
2019-04-16T21:46:00.547Z,7.40
2019-04-16T21:48:29.488Z,8.00
2019-04-16T21:50:58.405Z,6.70
2019-04-16T21:53:28.847Z,9.53
2019-04-16T21:55:57.939Z,7.63
2019-04-16T21:58:26.949Z,6.97
2019-04-16T22:01:19.849Z,7.33
2019-04-16T22:03:53.725Z,10.80
2019-04-16T22:06:22.839Z,9.03
2019-04-16T22:08:51.851Z,7.50
2019-04-16T22:11:20.871Z,8.40
2019-04-16T22:13:50.801Z,7.37
2019-04-16T22:16:20.569Z,6.93
2019-04-16T22:18:49.565Z,7.00
2019-04-16T22:21:18.481Z,6.90
2019-04-16T22:23:50.356Z,7.43
2019-04-16T22:26:18.457Z,7.27
2019-04-16T22:28:47.314Z,7.60
2019-04-16T22:31:16.258Z,7.43
2019-04-16T22:33:45.353Z,7.30
2019-04-16T22:36:14.617Z,6.83
2019-04-16T22:38:46.837Z,7.10
2019-04-16T22:41:27.375Z,8.30
2019-04-16T22:44:13.820Z,8.00
2019-04-16T22:46:48.025Z,8.37
2019-04-16T22:49:18.588Z,9.77
2019-04-16T22:51:47.595Z,8.00
2019-04-16T22:54:17.656Z,9.77
2019-04-16T22:56:57.823Z,10.23
2019-04-16T22:59:26.310Z,9.57
2019-04-16T23:01:55.324Z,9.23
2019-04-16T23:04:26.067Z,10.20
2019-04-16T23:06:55.269Z,11.77
2019-04-16T23:09:26.770Z,11.77
2019-04-16T23:11:56.486Z,12.23
2019-04-16T23:14:26.003Z,13.13
2019-04-16T23:16:55.309Z,13.27
2019-04-16T23:19:24.244Z,14.03
2019-04-16T23:21:53.091Z,13.43
2019-04-16T23:24:23.401Z,13.37
2019-04-16T23:26:52.629Z,14.57
2019-04-16T23:29:21.554Z,13.73
2019-04-16T23:31:55.075Z,13.57
2019-04-16T23:34:21.058Z,14.43
2019-04-16T23:36:49.935Z,14.43
2019-04-16T23:39:18.784Z,13.13
2019-04-16T23:41:48.331Z,12.30
2019-04-16T23:44:41.623Z,13.60
2019-04-16T23:47:23.625Z,14.10
2019-04-16T23:50:11.708Z,15.07
2019-04-16T23:52:53.597Z,14.50
2019-04-16T23:55:31.705Z,14.07
2019-04-16T23:58:04.451Z,13.80
